createdAt,value
2023-04-20T00:00:01.389Z,47.8
2023-04-20T00:01:01.329Z,47.8
2023-04-20T00:02:03.230Z,47.8
2023-04-20T00:03:01.459Z,47.8
2023-04-20T00:04:01.946Z,47.8
2023-04-20T00:05:01.386Z,47.8
2023-04-20T00:06:01.271Z,47.8
2023-04-20T00:07:01.730Z,47.8
2023-04-20T00:08:01.345Z,47.8
2023-04-20T00:09:01.686Z,47.8
2023-04-20T00:10:02.294Z,47.8
2023-04-20T00:11:01.341Z,47.8
2023-04-20T00:12:01.347Z,47.7
2023-04-20T00:13:01.329Z,47.7
2023-04-20T00:14:01.331Z,47.5
2023-04-20T00:15:02.164Z,47.5
2023-04-20T00:16:01.332Z,47.5
2023-04-20T00:17:01.323Z,47.5
2023-04-20T00:18:01.312Z,47.3
2023-04-20T00:19:01.732Z,47.3
2023-04-20T00:20:01.760Z,47.1
2023-04-20T00:21:01.289Z,47.1
2023-04-20T00:22:01.300Z,47.1
2023-04-20T00:23:02.226Z,47.1
2023-04-20T00:24:01.850Z,47.1
2023-04-20T00:25:01.369Z,47.1
2023-04-20T00:26:01.736Z,47.1
2023-04-20T00:27:01.330Z,47.3
2023-04-20T00:28:01.689Z,47.3
2023-04-20T00:29:01.337Z,47.3
2023-04-20T00:30:01.335Z,47.5
2023-04-20T00:31:01.312Z,47.5
2023-04-20T00:32:01.284Z,47.5
2023-04-20T00:33:02.267Z,47.5
2023-04-20T00:34:01.677Z,47.5
2023-04-20T00:35:01.328Z,47.3
2023-04-20T00:36:01.367Z,47.3
2023-04-20T00:37:01.870Z,47.3
2023-04-20T00:38:01.608Z,47.1
2023-04-20T00:39:01.629Z,47.1
2023-04-20T00:40:01.662Z,47.1
2023-04-20T00:41:01.796Z,47.1
2023-04-20T00:42:05.678Z,47.1
2023-04-20T00:43:09.229Z,47.1
2023-04-20T00:44:01.705Z,47.1
2023-04-20T00:45:01.293Z,47.1
2023-04-20T00:46:01.310Z,47.1
2023-04-20T00:47:01.638Z,47.1
2023-04-20T00:48:02.021Z,47.1
2023-04-20T00:49:01.913Z,47.1
2023-04-20T00:50:02.078Z,47.3
2023-04-20T00:51:01.872Z,47.3
2023-04-20T00:52:01.293Z,47.3
2023-04-20T00:53:01.958Z,47.1
2023-04-20T00:54:02.211Z,47.1
2023-04-20T00:55:02.697Z,47.1
2023-04-20T00:56:01.776Z,47.1
2023-04-20T00:57:02.886Z,47.1
2023-04-20T00:58:01.675Z,47.1
2023-04-20T00:59:01.590Z,47.1
2023-04-20T01:00:01.839Z,47.1
2023-04-20T01:01:01.322Z,47.1
2023-04-20T01:02:01.430Z,47.1
2023-04-20T01:03:01.469Z,47.1
2023-04-20T01:04:01.404Z,46.9
2023-04-20T01:05:01.750Z,46.9
2023-04-20T01:06:01.983Z,46.8
2023-04-20T01:07:01.775Z,46.8
2023-04-20T01:08:01.644Z,46.8
2023-04-20T01:09:01.477Z,46.6
2023-04-20T01:10:02.115Z,46.6
2023-04-20T01:11:01.636Z,46.6
2023-04-20T01:12:01.646Z,46.4
2023-04-20T01:13:01.338Z,46.6
2023-04-20T01:14:01.687Z,46.6
2023-04-20T01:15:02.326Z,46.4
2023-04-20T01:16:01.449Z,46.4
2023-04-20T01:17:01.711Z,46.4
2023-04-20T01:18:01.781Z,46.6
2023-04-20T01:19:01.821Z,46.4
2023-04-20T01:20:01.306Z,46.6
2023-04-20T01:21:01.566Z,46.6
2023-04-20T01:22:01.810Z,46.6
2023-04-20T01:23:01.330Z,46.6
2023-04-20T01:24:01.637Z,46.8
2023-04-20T01:25:01.365Z,46.6
2023-04-20T01:26:06.084Z,46.6
2023-04-20T01:27:01.628Z,46.6
2023-04-20T01:28:01.590Z,46.6
2023-04-20T01:29:01.659Z,46.4
2023-04-20T01:30:01.645Z,46.4
2023-04-20T01:31:02.599Z,46.2
2023-04-20T01:32:01.887Z,46.2
2023-04-20T01:33:01.673Z,46.0
2023-04-20T01:34:01.372Z,46.0
2023-04-20T01:35:03.059Z,46.0
2023-04-20T01:36:01.972Z,45.9
2023-04-20T01:37:01.648Z,45.9
2023-04-20T01:38:01.823Z,45.9
2023-04-20T01:39:01.331Z,45.9
2023-04-20T01:40:02.992Z,45.9
2023-04-20T01:41:03.237Z,45.7
2023-04-20T01:42:01.917Z,45.5
2023-04-20T01:43:01.729Z,45.5
2023-04-20T01:44:01.736Z,45.5
2023-04-20T01:45:01.347Z,45.5
2023-04-20T01:46:01.739Z,45.3
2023-04-20T01:47:01.727Z,45.3
2023-04-20T01:48:01.781Z,45.3
2023-04-20T01:49:01.326Z,45.3
2023-04-20T01:50:01.616Z,45.3
2023-04-20T01:51:01.335Z,45.3
2023-04-20T01:52:01.350Z,45.1
2023-04-20T01:53:01.278Z,45.1
2023-04-20T01:54:02.403Z,45.1
2023-04-20T01:55:01.631Z,45.1
2023-04-20T01:56:01.279Z,45.1
2023-04-20T01:57:01.281Z,45.0
2023-04-20T01:58:01.669Z,45.0
2023-04-20T01:59:01.331Z,45.0
2023-04-20T02:00:01.360Z,45.0
2023-04-20T02:01:01.955Z,45.0
2023-04-20T02:02:01.872Z,45.0
2023-04-20T02:03:01.468Z,45.0
2023-04-20T02:04:01.807Z,45.0
2023-04-20T02:05:01.996Z,45.0
2023-04-20T02:06:01.275Z,44.8
2023-04-20T02:07:01.315Z,44.8
2023-04-20T02:08:01.348Z,44.8
2023-04-20T02:09:01.638Z,44.8
2023-04-20T02:10:02.195Z,44.8
2023-04-20T02:11:01.720Z,44.6
2023-04-20T02:12:01.329Z,44.6
2023-04-20T02:13:01.312Z,44.6
2023-04-20T02:14:01.641Z,44.6
2023-04-20T02:15:01.347Z,44.6
2023-04-20T02:16:01.933Z,44.6
2023-04-20T02:17:01.831Z,44.6
2023-04-20T02:18:01.392Z,44.4
2023-04-20T02:19:01.304Z,44.4
2023-04-20T02:20:01.716Z,44.4
2023-04-20T02:21:01.345Z,44.4
2023-04-20T02:22:01.313Z,44.4
2023-04-20T02:23:01.290Z,44.4
2023-04-20T02:24:01.288Z,44.4
2023-04-20T02:25:02.049Z,44.2
2023-04-20T02:26:01.647Z,44.2
2023-04-20T02:27:01.567Z,44.2
2023-04-20T02:28:01.653Z,44.2
2023-04-20T02:29:01.289Z,44.2
2023-04-20T02:30:01.683Z,44.2
2023-04-20T02:31:01.378Z,44.2
2023-04-20T02:32:01.712Z,44.1
2023-04-20T02:33:01.410Z,44.1
2023-04-20T02:34:01.708Z,44.1
2023-04-20T02:35:01.505Z,43.9
2023-04-20T02:36:01.300Z,43.9
2023-04-20T02:37:01.812Z,43.9
2023-04-20T02:38:01.629Z,43.9
2023-04-20T02:39:01.820Z,43.9
2023-04-20T02:40:01.598Z,43.9
2023-04-20T02:41:01.345Z,43.9
2023-04-20T02:42:01.970Z,43.9
2023-04-20T02:43:01.593Z,43.9
2023-04-20T02:44:01.338Z,43.9
2023-04-20T02:45:01.855Z,43.7
2023-04-20T02:46:01.303Z,43.7
2023-04-20T02:47:01.310Z,43.7
2023-04-20T02:48:01.412Z,43.7
2023-04-20T02:49:02.170Z,43.7
2023-04-20T02:50:01.295Z,43.7
2023-04-20T02:51:01.635Z,43.7
2023-04-20T02:52:01.661Z,43.7
2023-04-20T02:53:01.370Z,43.7
2023-04-20T02:54:01.369Z,43.7
2023-04-20T02:55:01.709Z,43.5
2023-04-20T02:56:01.708Z,43.5
2023-04-20T02:57:01.280Z,43.5
2023-04-20T02:58:02.178Z,43.5
2023-04-20T02:59:01.424Z,43.5
2023-04-20T03:00:01.565Z,43.5
2023-04-20T03:01:02.045Z,43.5
2023-04-20T03:02:01.931Z,43.5
2023-04-20T03:03:01.481Z,43.3
2023-04-20T03:04:02.120Z,43.5
2023-04-20T03:05:01.328Z,43.3
2023-04-20T03:06:01.299Z,43.3
2023-04-20T03:07:01.750Z,43.3
2023-04-20T03:08:01.268Z,43.3
2023-04-20T03:09:01.917Z,43.3
2023-04-20T03:10:01.311Z,43.3
2023-04-20T03:11:01.744Z,43.2
2023-04-20T03:12:01.345Z,43.2
2023-04-20T03:13:01.348Z,43.2
2023-04-20T03:14:01.358Z,43.2
2023-04-20T03:15:04.261Z,43.2
2023-04-20T03:16:01.675Z,43.2
2023-04-20T03:17:01.278Z,43.2
2023-04-20T03:18:01.759Z,43.2
2023-04-20T03:19:01.303Z,43.2
2023-04-20T03:20:01.354Z,43.0
2023-04-20T03:21:01.631Z,43.0
2023-04-20T03:22:01.866Z,43.0
2023-04-20T03:23:01.700Z,43.0
2023-04-20T03:24:01.476Z,43.0
2023-04-20T03:25:01.294Z,43.0
2023-04-20T03:26:01.690Z,43.0
2023-04-20T03:27:01.262Z,43.0
2023-04-20T03:28:01.275Z,43.0
2023-04-20T03:29:01.856Z,43.0
2023-04-20T03:30:01.726Z,43.0
2023-04-20T03:31:01.328Z,43.0
2023-04-20T03:32:01.323Z,43.0
2023-04-20T03:33:01.828Z,43.0
2023-04-20T03:34:01.284Z,43.0
2023-04-20T03:35:01.592Z,42.8
2023-04-20T03:36:01.271Z,42.8
2023-04-20T03:37:01.388Z,42.8
2023-04-20T03:38:01.333Z,42.8
2023-04-20T03:39:01.349Z,42.8
2023-04-20T03:40:01.269Z,42.8
2023-04-20T03:41:01.622Z,42.6
2023-04-20T03:42:01.319Z,42.6
2023-04-20T03:43:01.614Z,42.6
2023-04-20T03:44:01.825Z,42.6
2023-04-20T03:45:01.370Z,42.6
2023-04-20T03:46:01.764Z,42.6
2023-04-20T03:47:01.709Z,42.4
2023-04-20T03:48:01.670Z,42.4
2023-04-20T03:49:01.345Z,42.6
2023-04-20T03:50:01.359Z,42.6
2023-04-20T03:51:01.341Z,42.6
2023-04-20T03:52:01.341Z,42.6
2023-04-20T03:53:01.514Z,42.4
2023-04-20T03:54:01.265Z,42.4
2023-04-20T03:55:01.956Z,42.6
2023-04-20T03:56:01.269Z,42.6
2023-04-20T03:57:01.777Z,42.6
2023-04-20T03:58:01.675Z,42.6
2023-04-20T03:59:01.677Z,42.4
2023-04-20T04:00:02.014Z,42.6
2023-04-20T04:01:01.702Z,42.6
2023-04-20T04:02:01.436Z,42.4
2023-04-20T04:03:01.499Z,42.4
2023-04-20T04:04:01.488Z,42.4
2023-04-20T04:05:01.503Z,42.4
2023-04-20T04:06:02.004Z,42.3
2023-04-20T04:07:01.576Z,42.3
2023-04-20T04:08:01.325Z,42.3
2023-04-20T04:09:01.598Z,42.4
2023-04-20T04:10:01.317Z,42.3
2023-04-20T04:11:01.708Z,42.4
2023-04-20T04:12:01.308Z,42.3
2023-04-20T04:13:01.341Z,42.3
2023-04-20T04:14:01.621Z,42.3
2023-04-20T04:15:01.882Z,42.3
2023-04-20T04:16:01.662Z,42.1
2023-04-20T04:17:01.785Z,42.1
2023-04-20T04:18:01.320Z,42.1
2023-04-20T04:19:01.276Z,42.1
2023-04-20T04:20:01.693Z,42.1
2023-04-20T04:21:01.652Z,42.1
2023-04-20T04:22:01.693Z,42.1
2023-04-20T04:23:01.773Z,42.1
2023-04-20T04:24:01.649Z,42.1
2023-04-20T04:25:01.646Z,42.1
2023-04-20T04:26:01.275Z,41.9
2023-04-20T04:27:01.660Z,41.9
2023-04-20T04:28:01.483Z,41.9
2023-04-20T04:29:01.647Z,41.9
2023-04-20T04:30:01.331Z,41.9
2023-04-20T04:31:01.558Z,41.9
2023-04-20T04:32:01.270Z,41.9
2023-04-20T04:33:01.756Z,41.9
2023-04-20T04:34:01.326Z,41.9
2023-04-20T04:35:01.617Z,41.9
2023-04-20T04:36:01.648Z,41.7
2023-04-20T04:37:01.366Z,41.9
2023-04-20T04:38:01.273Z,41.9
2023-04-20T04:39:01.718Z,41.9
2023-04-20T04:40:01.267Z,41.9
2023-04-20T04:41:01.280Z,41.9
2023-04-20T04:42:03.669Z,41.9
2023-04-20T04:43:01.333Z,41.9
2023-04-20T04:44:01.645Z,41.9
2023-04-20T04:45:02.012Z,41.9
2023-04-20T04:46:06.238Z,41.9
2023-04-20T04:47:02.386Z,41.9
2023-04-20T04:48:01.321Z,41.7
2023-04-20T04:49:01.495Z,41.7
2023-04-20T04:50:02.047Z,41.7
2023-04-20T04:51:01.606Z,41.7
2023-04-20T04:52:01.319Z,41.5
2023-04-20T04:53:01.625Z,41.5
2023-04-20T04:54:01.273Z,41.5
2023-04-20T04:55:01.974Z,41.5
2023-04-20T04:56:01.288Z,41.5
2023-04-20T04:57:01.402Z,41.4
2023-04-20T04:58:01.298Z,41.4
2023-04-20T04:59:01.272Z,41.4
2023-04-20T05:00:01.364Z,41.4
2023-04-20T05:01:01.575Z,41.4
2023-04-20T05:02:01.394Z,41.4
2023-04-20T05:03:01.447Z,41.4
2023-04-20T05:04:01.872Z,41.4
2023-04-20T05:05:01.338Z,41.4
2023-04-20T05:06:01.732Z,41.4
2023-04-20T05:07:01.685Z,41.4
2023-04-20T05:08:01.584Z,41.4
2023-04-20T05:09:01.688Z,41.4
2023-04-20T05:10:01.270Z,41.4
2023-04-20T05:11:01.538Z,41.4
2023-04-20T05:12:02.251Z,41.4
2023-04-20T05:13:01.639Z,41.4
2023-04-20T05:14:01.361Z,41.4
2023-04-20T05:15:01.839Z,41.4
2023-04-20T05:16:01.287Z,41.4
2023-04-20T05:17:01.780Z,41.4
2023-04-20T05:18:01.402Z,41.2
2023-04-20T05:19:01.654Z,41.2
2023-04-20T05:20:01.372Z,41.2
2023-04-20T05:21:01.745Z,41.2
2023-04-20T05:22:01.270Z,41.2
2023-04-20T05:23:01.853Z,41.2
2023-04-20T05:24:01.561Z,41.2
2023-04-20T05:25:01.705Z,41.2
2023-04-20T05:26:01.343Z,41.2
2023-04-20T05:27:01.330Z,41.0
2023-04-20T05:28:01.381Z,41.0
2023-04-20T05:29:01.582Z,41.0
2023-04-20T05:30:13.154Z,40.8
2023-04-20T05:31:01.310Z,40.8
2023-04-20T05:32:01.378Z,40.8
2023-04-20T05:33:01.314Z,40.8
2023-04-20T05:34:01.454Z,40.8
2023-04-20T05:35:01.319Z,40.8
2023-04-20T05:36:01.597Z,40.8
2023-04-20T05:37:04.004Z,40.8
2023-04-20T05:38:01.675Z,40.8
2023-04-20T05:39:01.339Z,40.8
2023-04-20T05:40:01.261Z,40.8
2023-04-20T05:41:01.484Z,40.6
2023-04-20T05:42:01.260Z,40.6
2023-04-20T05:43:01.873Z,40.8
2023-04-20T05:44:01.336Z,40.8
2023-04-20T05:45:01.449Z,40.8
2023-04-20T05:46:01.690Z,40.8
2023-04-20T05:47:01.689Z,40.8
2023-04-20T05:48:01.375Z,40.8
2023-04-20T05:49:01.332Z,40.8
2023-04-20T05:50:01.597Z,40.8
2023-04-20T05:51:01.293Z,40.8
2023-04-20T05:52:01.714Z,41.0
2023-04-20T05:53:01.796Z,41.0
2023-04-20T05:54:02.322Z,41.0
2023-04-20T05:55:01.277Z,41.0
2023-04-20T05:56:01.478Z,41.2
2023-04-20T05:57:01.291Z,41.2
2023-04-20T05:58:01.266Z,41.2
2023-04-20T05:59:01.700Z,41.2
2023-04-20T06:00:01.537Z,41.2
2023-04-20T06:01:01.276Z,41.2
2023-04-20T06:02:01.782Z,41.2
2023-04-20T06:03:02.245Z,41.2
2023-04-20T06:04:01.823Z,41.4
2023-04-20T06:05:01.770Z,41.4
2023-04-20T06:06:01.695Z,41.4
2023-04-20T06:07:01.676Z,41.4
2023-04-20T06:08:01.288Z,41.4
2023-04-20T06:09:01.289Z,41.4
2023-04-20T06:10:01.903Z,41.4
2023-04-20T06:11:01.719Z,41.2
2023-04-20T06:12:01.364Z,41.2
2023-04-20T06:13:01.753Z,41.4
2023-04-20T06:14:01.737Z,41.4
2023-04-20T06:15:01.605Z,41.4
2023-04-20T06:16:01.354Z,41.5
2023-04-20T06:17:01.621Z,41.5
2023-04-20T06:18:02.048Z,41.5
2023-04-20T06:19:01.353Z,41.5
2023-04-20T06:20:01.690Z,41.5
2023-04-20T06:21:01.268Z,41.5
2023-04-20T06:22:05.365Z,41.5
2023-04-20T06:23:01.284Z,41.5
2023-04-20T06:24:01.774Z,41.5
2023-04-20T06:25:01.732Z,41.5
2023-04-20T06:26:01.327Z,41.5
2023-04-20T06:27:01.695Z,41.5
2023-04-20T06:28:01.365Z,41.5
2023-04-20T06:29:01.473Z,41.5
2023-04-20T06:30:01.783Z,41.5
2023-04-20T06:31:01.525Z,41.5
2023-04-20T06:32:01.561Z,41.5
2023-04-20T06:33:02.498Z,41.5
2023-04-20T06:34:01.347Z,41.7
2023-04-20T06:35:01.601Z,41.5
2023-04-20T06:36:01.347Z,41.5
2023-04-20T06:37:01.317Z,41.5
2023-04-20T06:38:01.281Z,41.5
2023-04-20T06:39:01.299Z,41.5
2023-04-20T06:40:02.074Z,41.5
2023-04-20T06:41:01.825Z,41.7
2023-04-20T06:42:01.815Z,41.5
2023-04-20T06:43:01.326Z,41.7
2023-04-20T06:44:01.480Z,41.7
2023-04-20T06:45:01.788Z,41.7
2023-04-20T06:46:01.626Z,41.7
2023-04-20T06:47:01.460Z,41.7
2023-04-20T06:48:01.828Z,41.9
2023-04-20T06:49:01.731Z,41.9
2023-04-20T06:50:03.130Z,41.9
2023-04-20T06:51:01.689Z,41.9
2023-04-20T06:52:01.331Z,41.9
2023-04-20T06:53:02.614Z,41.9
2023-04-20T06:54:01.277Z,41.9
2023-04-20T06:55:01.665Z,41.9
2023-04-20T06:56:01.397Z,41.9
2023-04-20T06:57:01.642Z,41.9
2023-04-20T06:58:01.303Z,41.9
2023-04-20T06:59:01.456Z,42.1
2023-04-20T07:00:01.331Z,41.9
2023-04-20T07:01:01.649Z,41.9
2023-04-20T07:02:01.629Z,41.9
2023-04-20T07:03:01.744Z,41.9
2023-04-20T07:04:01.514Z,41.9
2023-04-20T07:05:01.703Z,41.9
2023-04-20T07:06:01.649Z,41.9
2023-04-20T07:07:01.267Z,41.9
2023-04-20T07:08:01.256Z,42.1
2023-04-20T07:09:01.273Z,42.1
2023-04-20T07:10:01.263Z,42.1
2023-04-20T07:11:01.699Z,42.1
2023-04-20T07:12:01.337Z,41.9
2023-04-20T07:13:01.480Z,41.9
2023-04-20T07:14:01.286Z,41.9
2023-04-20T07:15:01.461Z,41.9
2023-04-20T07:16:02.147Z,41.9
2023-04-20T07:17:01.348Z,41.9
2023-04-20T07:18:01.390Z,41.9
2023-04-20T07:19:01.320Z,41.9
2023-04-20T07:20:02.198Z,42.1
2023-04-20T07:21:01.320Z,41.9
2023-04-20T07:22:01.337Z,42.1
2023-04-20T07:23:01.351Z,42.1
2023-04-20T07:24:01.856Z,42.1
2023-04-20T07:25:02.593Z,41.9
2023-04-20T07:26:01.324Z,41.9
2023-04-20T07:27:01.621Z,41.9
2023-04-20T07:28:01.702Z,41.9
2023-04-20T07:29:01.713Z,41.7
2023-04-20T07:30:01.493Z,41.7
2023-04-20T07:31:01.669Z,41.7
2023-04-20T07:32:01.573Z,41.7
2023-04-20T07:33:01.417Z,41.7
2023-04-20T07:34:01.345Z,41.7
2023-04-20T07:35:01.981Z,41.7
2023-04-20T07:36:01.398Z,41.5
2023-04-20T07:37:01.672Z,41.5
2023-04-20T07:38:01.278Z,41.5
2023-04-20T07:39:01.262Z,41.5
2023-04-20T07:40:02.098Z,41.4
2023-04-20T07:41:02.607Z,41.4
2023-04-20T07:42:02.303Z,41.5
2023-04-20T07:43:01.320Z,41.5
2023-04-20T07:44:01.295Z,41.4
2023-04-20T07:45:01.819Z,41.4
2023-04-20T07:46:02.238Z,41.2
2023-04-20T07:47:03.001Z,41.2
2023-04-20T07:48:01.450Z,41.2
2023-04-20T07:49:01.375Z,41.2
2023-04-20T07:50:01.853Z,41.0
2023-04-20T07:51:01.791Z,41.2
2023-04-20T07:52:15.199Z,41.2
2023-04-20T07:53:01.660Z,41.2
2023-04-20T07:54:01.358Z,41.2
2023-04-20T07:55:01.754Z,41.2
2023-04-20T07:56:01.861Z,41.0
2023-04-20T07:57:01.478Z,41.0
2023-04-20T07:58:01.344Z,41.0
2023-04-20T07:59:01.370Z,41.0
2023-04-20T08:00:01.825Z,41.2
2023-04-20T08:01:01.338Z,41.2
2023-04-20T08:02:02.789Z,41.0
2023-04-20T08:03:01.619Z,41.2
2023-04-20T08:04:02.054Z,41.2
2023-04-20T08:05:01.814Z,41.2
2023-04-20T08:06:01.392Z,41.2
2023-04-20T08:07:01.349Z,41.2
2023-04-20T08:08:01.520Z,41.2
2023-04-20T08:09:01.282Z,41.2
2023-04-20T08:10:01.699Z,41.2
2023-04-20T08:11:01.383Z,41.2
2023-04-20T08:12:01.321Z,41.2
2023-04-20T08:13:01.287Z,41.2
2023-04-20T08:14:01.252Z,41.0
2023-04-20T08:15:01.878Z,41.0
2023-04-20T08:16:01.624Z,41.2
2023-04-20T08:17:01.627Z,41.2
2023-04-20T08:18:01.670Z,41.2
2023-04-20T08:19:01.703Z,41.0
2023-04-20T08:20:01.661Z,41.0
2023-04-20T08:21:01.282Z,41.0
2023-04-20T08:22:01.475Z,41.0
2023-04-20T08:23:01.690Z,40.8
2023-04-20T08:24:01.806Z,40.8
2023-04-20T08:25:01.747Z,40.8
2023-04-20T08:26:02.549Z,40.8
2023-04-20T08:27:01.338Z,40.8
2023-04-20T08:28:01.768Z,40.6
2023-04-20T08:29:02.434Z,40.8
2023-04-20T08:30:01.813Z,40.6
2023-04-20T08:31:01.288Z,40.8
2023-04-20T08:32:02.873Z,40.6
2023-04-20T08:33:02.039Z,40.6
2023-04-20T08:34:01.295Z,40.6
2023-04-20T08:35:01.682Z,40.8
2023-04-20T08:36:01.310Z,40.6
2023-04-20T08:37:01.338Z,40.6
2023-04-20T08:38:01.374Z,40.6
2023-04-20T08:39:07.682Z,40.6
2023-04-20T08:40:01.325Z,40.6
2023-04-20T08:41:01.660Z,40.6
2023-04-20T08:42:01.918Z,40.6
2023-04-20T08:43:01.371Z,40.6
2023-04-20T08:44:01.733Z,40.6
2023-04-20T08:45:01.330Z,40.6
2023-04-20T08:46:01.361Z,40.8
2023-04-20T08:47:03.132Z,40.8
2023-04-20T08:48:05.503Z,40.8
2023-04-20T08:49:01.706Z,40.8
2023-04-20T08:50:02.996Z,40.8
2023-04-20T08:51:02.026Z,40.8
2023-04-20T08:52:01.984Z,40.8
2023-04-20T08:53:02.939Z,40.8
2023-04-20T08:54:03.636Z,40.8
2023-04-20T08:55:01.642Z,40.8
2023-04-20T08:56:01.637Z,40.8
2023-04-20T08:57:01.280Z,40.8
2023-04-20T08:58:01.670Z,40.8
2023-04-20T08:59:02.565Z,41.0
2023-04-20T09:00:04.057Z,41.0
2023-04-20T09:01:01.713Z,41.0
2023-04-20T09:02:09.865Z,41.0
2023-04-20T09:03:01.746Z,41.0
2023-04-20T09:04:01.625Z,41.0
2023-04-20T09:05:02.035Z,41.0
2023-04-20T09:06:01.305Z,41.2
2023-04-20T09:07:01.497Z,41.0
2023-04-20T09:08:01.307Z,41.2
2023-04-20T09:09:09.466Z,41.2
2023-04-20T09:10:01.646Z,41.0
2023-04-20T09:11:01.359Z,41.0
2023-04-20T09:12:02.928Z,41.0
2023-04-20T09:13:01.339Z,41.0
2023-04-20T09:14:03.505Z,41.0
2023-04-20T09:15:01.609Z,41.2
2023-04-20T09:16:09.847Z,41.0
2023-04-20T09:17:01.348Z,41.0
2023-04-20T09:18:11.591Z,41.0
2023-04-20T09:19:01.804Z,41.0
2023-04-20T09:20:02.208Z,41.0
2023-04-20T09:21:06.851Z,41.0
2023-04-20T09:22:01.634Z,40.8
2023-04-20T09:23:11.038Z,41.0
2023-04-20T09:24:03.171Z,41.0
2023-04-20T09:25:11.932Z,40.8
2023-04-20T09:26:01.282Z,40.8
2023-04-20T09:27:11.952Z,40.8
2023-04-20T09:28:01.686Z,41.0
2023-04-20T09:29:02.334Z,41.0
2023-04-20T09:30:02.390Z,40.8
2023-04-20T09:31:01.726Z,41.0
2023-04-20T09:32:01.685Z,41.0
2023-04-20T09:33:02.518Z,40.8
2023-04-20T09:34:03.267Z,40.8
2023-04-20T09:35:01.398Z,41.0
2023-04-20T09:36:03.481Z,41.0
2023-04-20T09:37:01.349Z,40.8
2023-04-20T09:38:01.646Z,41.0
2023-04-20T09:39:03.343Z,40.8
2023-04-20T09:40:03.236Z,41.0
2023-04-20T09:41:01.842Z,41.0
2023-04-20T09:42:04.807Z,41.0
2023-04-20T09:43:08.588Z,41.0
2023-04-20T09:44:02.071Z,41.0
2023-04-20T09:45:02.439Z,41.2
2023-04-20T09:46:02.698Z,41.2
2023-04-20T09:47:02.595Z,41.2
2023-04-20T09:48:05.468Z,41.2
2023-04-20T09:49:03.710Z,41.2
2023-04-20T09:50:14.647Z,41.0
2023-04-20T09:51:01.698Z,41.0
2023-04-20T09:52:03.421Z,41.0
2023-04-20T09:53:01.780Z,41.0
2023-04-20T09:54:02.971Z,41.0
2023-04-20T09:55:02.101Z,41.0
2023-04-20T09:56:02.259Z,41.0
2023-04-20T09:57:01.640Z,41.0
2023-04-20T09:58:03.315Z,41.0
2023-04-20T09:59:02.241Z,41.0
2023-04-20T10:00:02.273Z,41.0
2023-04-20T10:01:01.335Z,41.0
2023-04-20T10:02:01.752Z,41.2
2023-04-20T10:03:01.773Z,41.2
2023-04-20T10:04:07.459Z,41.2
2023-04-20T10:05:01.669Z,41.2
2023-04-20T10:06:01.695Z,41.2
2023-04-20T10:07:01.756Z,41.2
2023-04-20T10:08:01.984Z,41.4
2023-04-20T10:09:03.545Z,41.4
2023-04-20T10:10:02.182Z,41.4
2023-04-20T10:11:01.303Z,41.4
2023-04-20T10:12:05.541Z,41.4
2023-04-20T10:13:01.818Z,41.2
2023-04-20T10:14:15.332Z,41.4
2023-04-20T10:15:01.826Z,41.4
2023-04-20T10:16:01.657Z,41.4
2023-04-20T10:17:03.696Z,41.4
2023-04-20T10:18:01.437Z,41.4
2023-04-20T10:19:03.630Z,41.4
2023-04-20T10:20:01.840Z,41.4
2023-04-20T10:21:05.894Z,41.4
2023-04-20T10:22:01.658Z,41.4
2023-04-20T10:23:07.392Z,41.4
2023-04-20T10:24:01.307Z,41.5
2023-04-20T10:25:11.705Z,41.4
2023-04-20T10:26:01.717Z,41.5
2023-04-20T10:27:01.331Z,41.5
2023-04-20T10:28:03.223Z,41.5
2023-04-20T10:29:01.748Z,41.5
2023-04-20T10:30:08.309Z,41.5
2023-04-20T10:31:01.781Z,41.5
2023-04-20T10:32:01.410Z,41.5
2023-04-20T10:33:03.714Z,41.5
2023-04-20T10:34:01.394Z,41.7
2023-04-20T10:35:03.226Z,41.7
2023-04-20T10:36:01.833Z,41.7
2023-04-20T10:37:09.845Z,41.7
2023-04-20T10:38:01.736Z,41.5
2023-04-20T10:39:11.288Z,41.5
2023-04-20T10:40:02.358Z,41.7
2023-04-20T10:41:09.804Z,41.7
2023-04-20T10:42:01.532Z,41.7
2023-04-20T10:43:01.500Z,41.7
2023-04-20T10:44:08.710Z,41.7
2023-04-20T10:45:01.329Z,41.7
2023-04-20T10:46:01.398Z,41.7
2023-04-20T10:47:01.704Z,41.5
2023-04-20T10:48:07.529Z,41.5
2023-04-20T10:49:01.681Z,41.5
2023-04-20T10:50:10.588Z,41.5
2023-04-20T10:51:08.801Z,41.5
2023-04-20T10:52:01.358Z,41.5
2023-04-20T10:53:03.128Z,41.5
2023-04-20T10:54:03.536Z,41.7
2023-04-20T10:55:02.258Z,41.7
2023-04-20T10:56:01.344Z,41.7
2023-04-20T10:57:01.336Z,41.7
2023-04-20T10:58:01.606Z,41.9
2023-04-20T10:59:05.719Z,41.9
2023-04-20T11:00:15.327Z,41.9
2023-04-20T11:01:03.845Z,41.9
2023-04-20T11:02:06.552Z,41.9
2023-04-20T11:03:01.418Z,41.9
2023-04-20T11:04:02.205Z,41.9
2023-04-20T11:05:10.337Z,41.9
2023-04-20T11:06:01.804Z,42.1
2023-04-20T11:07:06.180Z,42.1
2023-04-20T11:08:01.294Z,41.9
2023-04-20T11:09:02.163Z,41.9
2023-04-20T11:10:01.326Z,42.1
2023-04-20T11:11:01.308Z,42.1
2023-04-20T11:12:03.174Z,42.3
2023-04-20T11:13:01.300Z,42.3
2023-04-20T11:14:05.305Z,42.3
2023-04-20T11:15:01.511Z,42.3
2023-04-20T11:16:10.266Z,42.3
2023-04-20T11:17:01.718Z,42.3
2023-04-20T11:18:10.676Z,42.4
2023-04-20T11:19:02.231Z,42.4
2023-04-20T11:20:06.546Z,42.4
2023-04-20T11:21:01.292Z,42.4
2023-04-20T11:22:03.206Z,42.4
2023-04-20T11:23:01.719Z,42.4
2023-04-20T11:24:01.867Z,42.4
2023-04-20T11:25:02.984Z,42.6
2023-04-20T11:26:01.573Z,43.0
2023-04-20T11:27:02.246Z,43.2
2023-04-20T11:28:06.165Z,43.2
2023-04-20T11:29:01.629Z,43.3
2023-04-20T11:30:02.659Z,43.5
2023-04-20T11:31:01.891Z,43.9
2023-04-20T11:32:03.653Z,44.1
2023-04-20T11:33:01.408Z,44.2
2023-04-20T11:34:01.868Z,44.4
2023-04-20T11:35:07.100Z,44.6
2023-04-20T11:36:01.277Z,44.8
2023-04-20T11:37:04.400Z,44.6
2023-04-20T11:38:01.616Z,44.6
2023-04-20T11:39:07.172Z,44.8
2023-04-20T11:40:04.062Z,44.8
2023-04-20T11:41:01.703Z,44.8
2023-04-20T11:42:01.929Z,44.6
2023-04-20T11:43:01.757Z,44.6
2023-04-20T11:44:01.352Z,44.4
2023-04-20T11:45:01.433Z,44.6
2023-04-20T11:46:01.433Z,44.6
2023-04-20T11:47:01.328Z,44.6
2023-04-20T11:48:01.650Z,44.6
2023-04-20T11:49:01.851Z,44.8
2023-04-20T11:50:01.634Z,44.8
2023-04-20T11:51:01.284Z,44.8
2023-04-20T11:52:01.405Z,44.8
2023-04-20T11:53:01.282Z,44.8
2023-04-20T11:54:01.681Z,44.8
2023-04-20T11:55:01.327Z,44.8
2023-04-20T11:56:01.334Z,44.8
2023-04-20T11:57:01.797Z,44.6
2023-04-20T11:58:01.345Z,44.8
2023-04-20T11:59:01.820Z,45.0
2023-04-20T12:00:01.780Z,45.1
2023-04-20T12:01:01.349Z,45.3
2023-04-20T12:02:02.358Z,45.7
2023-04-20T12:03:01.741Z,45.9
2023-04-20T12:04:02.000Z,46.0
2023-04-20T12:05:01.467Z,46.4
2023-04-20T12:06:01.768Z,46.4
2023-04-20T12:07:01.288Z,46.6
2023-04-20T12:08:01.283Z,46.6
2023-04-20T12:09:01.332Z,46.8
2023-04-20T12:10:01.940Z,47.1
2023-04-20T12:11:01.658Z,47.3
2023-04-20T12:12:01.710Z,47.5
2023-04-20T12:13:01.310Z,47.5
2023-04-20T12:14:01.275Z,47.5
2023-04-20T12:15:01.287Z,47.5
2023-04-20T12:16:01.332Z,47.7
2023-04-20T12:17:03.225Z,47.7
2023-04-20T12:18:01.462Z,47.8
2023-04-20T12:19:01.274Z,48.0
2023-04-20T12:20:01.397Z,48.2
2023-04-20T12:21:01.938Z,47.8
2023-04-20T12:22:01.337Z,47.8
2023-04-20T12:23:01.774Z,48.0
2023-04-20T12:24:01.691Z,48.0
2023-04-20T12:25:01.646Z,48.2
2023-04-20T12:26:01.372Z,48.0
2023-04-20T12:27:01.311Z,47.8
2023-04-20T12:28:01.349Z,48.0
2023-04-20T12:29:01.661Z,48.0
2023-04-20T12:30:01.284Z,48.2
2023-04-20T12:31:01.682Z,48.4
2023-04-20T12:32:01.749Z,48.6
2023-04-20T12:33:01.858Z,48.7
2023-04-20T12:34:01.740Z,48.7
2023-04-20T12:35:01.370Z,48.6
2023-04-20T12:36:01.287Z,48.4
2023-04-20T12:37:01.341Z,48.4
2023-04-20T12:38:01.352Z,48.6
2023-04-20T12:39:01.848Z,48.6
2023-04-20T12:40:01.734Z,48.7
2023-04-20T12:41:01.735Z,48.7
2023-04-20T12:42:01.275Z,48.9
2023-04-20T12:43:01.544Z,49.1
2023-04-20T12:44:05.126Z,49.1
2023-04-20T12:45:01.624Z,49.5
2023-04-20T12:46:01.410Z,49.5
2023-04-20T12:47:01.692Z,49.5
2023-04-20T12:48:01.796Z,49.6
2023-04-20T12:49:01.351Z,50.0
2023-04-20T12:50:01.288Z,50.2
2023-04-20T12:51:01.698Z,50.4
2023-04-20T12:52:01.659Z,50.4
2023-04-20T12:53:01.631Z,50.2
2023-04-20T12:54:01.532Z,50.2
2023-04-20T12:55:01.819Z,50.4
2023-04-20T12:56:01.647Z,50.5
2023-04-20T12:57:01.733Z,50.7
2023-04-20T12:58:01.678Z,50.7
2023-04-20T12:59:01.274Z,51.1
2023-04-20T13:00:01.340Z,51.1
2023-04-20T13:01:02.170Z,51.1
2023-04-20T13:02:01.401Z,51.3
2023-04-20T13:03:01.548Z,51.4
2023-04-20T13:04:01.661Z,51.6
2023-04-20T13:05:01.792Z,51.6
2023-04-20T13:06:01.347Z,51.4
2023-04-20T13:07:01.705Z,51.4
2023-04-20T13:08:01.836Z,51.6
2023-04-20T13:09:01.841Z,51.6
2023-04-20T13:10:01.735Z,51.8
2023-04-20T13:11:01.262Z,52.0
2023-04-20T13:12:01.633Z,51.8
2023-04-20T13:13:01.590Z,52.0
2023-04-20T13:14:01.680Z,52.2
2023-04-20T13:15:01.687Z,52.3
2023-04-20T13:16:01.593Z,52.5
2023-04-20T13:17:02.066Z,52.2
2023-04-20T13:18:01.677Z,52.0